Tufão SONCA 2011: trajetória, intensidade e histórico
21/09/2011, 06:00:00
13/09/2011, 12:00:00 – 21/09/2011, 06:00:00
Trajetória histórica
Acompanhe a evolução e o deslocamento de Tufão SONCA em 2011, com a trajetória completa registrada, ventos máximos sustentados de 90 nós, pressão central mínima e cronologia detalhada.
| Data | Hora | Tipo | Ventokm/h | PressãohPa |
|---|---|---|---|---|
| 21/09 | 06:00 | EXCiclone extratropical | -- | 998 |
| 21/09 | 03:00 | EXCiclone extratropical | -- | 997 |
| 21/09 | 00:00 | EXCiclone extratropical | -- | 996 |
| 20/09 | 21:00 | EXCiclone extratropical | -- | 995 |
| 20/09 | 18:00 | EXCiclone extratropical | 85 | 989 |
| 20/09 | 15:00 | EXCiclone extratropical | 95 | 986 |
| 20/09 | 12:00 | EXCiclone extratropical | 100 | 982 |
| 20/09 | 09:00 | TSTempestade tropical | 105 | 980 |
| 20/09 | 06:00 | STSTempestade tropical severa | 110 | 978 |
| 20/09 | 03:00 | TTufão | 115 | 976 |
| 20/09 | 00:00 | TTufão | 120 | 974 |
| 19/09 | 21:00 | TTufão | 125 | 972 |
| 19/09 | 18:00 | TTufão | 130 | 970 |
| 19/09 | 15:00 | TTufão | 145 | 965 |
| 19/09 | 12:00 | TTufão | 155 | 959 |
| 19/09 | 09:00 | TTufão | 155 | 959 |
| 19/09 | 06:00 | TTufão | 155 | 959 |
| 19/09 | 03:00 | TTufão | 165 | 958 |
| 19/09 | 00:00 | TTufão | 165 | 956 |
| 18/09 | 21:00 | TTufão | 165 | 956 |
| 18/09 | 18:00 | TTufão | 165 | 956 |
| 18/09 | 15:00 | TTufão | 165 | 956 |
| 18/09 | 12:00 | TTufão | 165 | 956 |
| 18/09 | 09:00 | TTufão | 155 | 960 |
| 18/09 | 06:00 | TTufão | 150 | 963 |
| 18/09 | 03:00 | TTufão | 140 | 967 |
| 18/09 | 00:00 | STSTempestade tropical severa | 130 | 970 |
| 17/09 | 21:00 | TTufão | 125 | 972 |
| 17/09 | 18:00 | STSTempestade tropical severa | 120 | 974 |
| 17/09 | 15:00 | TTufão | 120 | 974 |
| 17/09 | 12:00 | STSTempestade tropical severa | 120 | 974 |
| 17/09 | 09:00 | TSTempestade tropical | 115 | 976 |
| 17/09 | 06:00 | STSTempestade tropical severa | 110 | 978 |
| 17/09 | 03:00 | TSTempestade tropical | 100 | 984 |
| 17/09 | 00:00 | TSTempestade tropical | 85 | 989 |
| 16/09 | 21:00 | TSTempestade tropical | 85 | 989 |
| 16/09 | 18:00 | TSTempestade tropical | 85 | 989 |
| 16/09 | 15:00 | TSTempestade tropical | 75 | 993 |
| 16/09 | 12:00 | TSTempestade tropical | 65 | 996 |
| 16/09 | 09:00 | TSTempestade tropical | 65 | 996 |
| 16/09 | 06:00 | TSTempestade tropical | 65 | 996 |
| 16/09 | 03:00 | TDDepressão tropical | 60 | 998 |
| 16/09 | 00:00 | TSTempestade tropical | 55 | 1000 |
| 15/09 | 21:00 | TDDepressão tropical | 55 | 1000 |
| 15/09 | 18:00 | TSTempestade tropical | 55 | 1000 |
| 15/09 | 15:00 | TDDepressão tropical | 55 | 1000 |
| 15/09 | 12:00 | TSTempestade tropical | 55 | 1000 |
| 15/09 | 09:00 | TDDepressão tropical | 55 | 1000 |
| 15/09 | 06:00 | TSTempestade tropical | 55 | 1000 |
| 15/09 | 03:00 | TDDepressão tropical | 55 | 1000 |
| 15/09 | 00:00 | TDDepressão tropical | 55 | 1000 |
| 14/09 | 21:00 | TDDepressão tropical | 55 | 1000 |
| 14/09 | 18:00 | TDDepressão tropical | 55 | 1000 |
| 14/09 | 15:00 | TDDepressão tropical | 50 | 1002 |
| 14/09 | 12:00 | TDDepressão tropical | 45 | 1004 |
| 14/09 | 09:00 | TDDepressão tropical | 45 | 1004 |
| 14/09 | 06:00 | TDDepressão tropical | 45 | 1004 |
| 14/09 | 03:00 | TDDepressão tropical | 45 | 1004 |
| 14/09 | 00:00 | TDDepressão tropical | 45 | 1004 |
| 13/09 | 21:00 | DBPerturbação tropical | 45 | 1006 |
| 13/09 | 18:00 | DBPerturbação tropical | 35 | 1007 |
| 13/09 | 15:00 | DBPerturbação tropical | 35 | 1009 |
| 13/09 | 12:00 | DBPerturbação tropical | 30 | 1010 |
Cronologia de localização
63 Registos de localizaçãoDetalhes do evento
Ligações das fontes
A localização, a extensão e o estado de cada evento podem ser atualizados em momentos diferentes consoante a fonte. Confirme decisões importantes junto das autoridades oficiais de emergência.
Os registos de eventos provêm da NASA EONET e são complementados por registos de deslizamentos de terra do USGS FDSN. As análises e previsões de tempestades podem utilizar a NOAA NHC ou o JTWC, com registos históricos ATCF da UCAR/NCAR quando disponíveis. As imagens de satélite provêm da NASA Worldview/GIBS (GOES e Himawari) ou da EUMETSAT Meteosat, consoante a cobertura do mapa.
Fontes: NASA EONET · USGS · NOAA NHC · JTWC · UCAR/NCAR ATCF · NASA Worldview/GIBS · EUMETSAT Meteosat · OpenStreetMap contributors